sensor_id;sensor_type;location;lat;lon;timestamp;P1;durP1;ratioP1;P2;durP2;ratioP2
64601;SDS011;68371;42.630;23.192;2023-06-22T00:00:43;11.70;;;5.82;;
64601;SDS011;68371;42.630;23.192;2023-06-22T00:03:10;6.63;;;5.05;;
64601;SDS011;68371;42.630;23.192;2023-06-22T00:05:36;12.10;;;5.55;;
64601;SDS011;68371;42.630;23.192;2023-06-22T00:08:03;9.90;;;5.30;;
64601;SDS011;68371;42.630;23.192;2023-06-22T00:10:31;8.88;;;5.38;;
64601;SDS011;68371;42.630;23.192;2023-06-22T00:12:59;6.78;;;5.32;;
64601;SDS011;68371;42.630;23.192;2023-06-22T00:15:25;8.40;;;5.65;;
64601;SDS011;68371;42.630;23.192;2023-06-22T00:17:53;6.80;;;5.38;;
64601;SDS011;68371;42.630;23.192;2023-06-22T00:20:20;7.35;;;5.75;;
64601;SDS011;68371;42.630;23.192;2023-06-22T00:22:47;9.23;;;6.20;;
64601;SDS011;68371;42.630;23.192;2023-06-22T00:25:14;12.02;;;6.45;;
64601;SDS011;68371;42.630;23.192;2023-06-22T00:27:41;9.55;;;5.93;;
64601;SDS011;68371;42.630;23.192;2023-06-22T00:30:09;9.50;;;5.97;;
64601;SDS011;68371;42.630;23.192;2023-06-22T00:32:37;7.80;;;5.72;;
64601;SDS011;68371;42.630;23.192;2023-06-22T00:35:04;10.07;;;5.90;;
64601;SDS011;68371;42.630;23.192;2023-06-22T00:37:31;6.97;;;5.32;;
64601;SDS011;68371;42.630;23.192;2023-06-22T00:39:57;6.70;;;5.15;;
64601;SDS011;68371;42.630;23.192;2023-06-22T00:42:24;8.65;;;5.80;;
64601;SDS011;68371;42.630;23.192;2023-06-22T00:44:51;12.98;;;5.03;;
64601;SDS011;68371;42.630;23.192;2023-06-22T00:47:19;10.95;;;5.05;;
64601;SDS011;68371;42.630;23.192;2023-06-22T00:49:46;11.95;;;5.38;;
64601;SDS011;68371;42.630;23.192;2023-06-22T00:52:14;9.73;;;5.10;;
64601;SDS011;68371;42.630;23.192;2023-06-22T00:54:45;8.00;;;5.15;;
64601;SDS011;68371;42.630;23.192;2023-06-22T00:57:14;6.68;;;5.00;;
64601;SDS011;68371;42.630;23.192;2023-06-22T00:59:42;7.05;;;5.05;;
64601;SDS011;68371;42.630;23.192;2023-06-22T01:02:09;9.57;;;5.25;;
64601;SDS011;68371;42.630;23.192;2023-06-22T01:04:37;10.65;;;5.85;;
64601;SDS011;68371;42.630;23.192;2023-06-22T01:07:07;6.80;;;5.43;;
64601;SDS011;68371;42.630;23.192;2023-06-22T01:09:41;9.90;;;5.38;;
64601;SDS011;68371;42.630;23.192;2023-06-22T01:12:17;6.75;;;5.40;;
64601;SDS011;68371;42.630;23.192;2023-06-22T01:14:47;10.48;;;5.57;;
64601;SDS011;68371;42.630;23.192;2023-06-22T01:17:18;10.15;;;5.15;;
64601;SDS011;68371;42.630;23.192;2023-06-22T01:19:47;7.43;;;5.25;;
64601;SDS011;68371;42.630;23.192;2023-06-22T01:22:17;8.15;;;5.72;;
64601;SDS011;68371;42.630;23.192;2023-06-22T01:24:51;14.63;;;5.60;;
64601;SDS011;68371;42.630;23.192;2023-06-22T01:27:28;7.88;;;5.18;;
64601;SDS011;68371;42.630;23.192;2023-06-22T01:30:03;6.97;;;5.63;;
64601;SDS011;68371;42.630;23.192;2023-06-22T01:32:35;9.93;;;5.80;;
64601;SDS011;68371;42.630;23.192;2023-06-22T01:35:05;7.07;;;5.45;;
64601;SDS011;68371;42.630;23.192;2023-06-22T01:37:34;8.13;;;5.50;;
64601;SDS011;68371;42.630;23.192;2023-06-22T01:40:02;8.07;;;5.88;;
64601;SDS011;68371;42.630;23.192;2023-06-22T01:42:31;11.90;;;5.53;;
64601;SDS011;68371;42.630;23.192;2023-06-22T01:44:58;10.35;;;5.45;;
64601;SDS011;68371;42.630;23.192;2023-06-22T01:47:27;7.10;;;5.43;;
64601;SDS011;68371;42.630;23.192;2023-06-22T01:49:55;8.15;;;5.25;;
64601;SDS011;68371;42.630;23.192;2023-06-22T01:52:22;7.95;;;5.30;;
64601;SDS011;68371;42.630;23.192;2023-06-22T01:54:48;13.20;;;5.88;;
64601;SDS011;68371;42.630;23.192;2023-06-22T01:57:15;6.72;;;5.35;;
64601;SDS011;68371;42.630;23.192;2023-06-22T01:59:44;5.65;;;4.85;;
64601;SDS011;68371;42.630;23.192;2023-06-22T02:02:17;10.07;;;5.30;;
64601;SDS011;68371;42.630;23.192;2023-06-22T02:04:54;13.48;;;5.80;;
64601;SDS011;68371;42.630;23.192;2023-06-22T02:07:24;6.78;;;4.97;;
64601;SDS011;68371;42.630;23.192;2023-06-22T02:09:58;9.13;;;5.22;;
64601;SDS011;68371;42.630;23.192;2023-06-22T02:12:28;8.10;;;5.50;;
64601;SDS011;68371;42.630;23.192;2023-06-22T02:14:57;9.40;;;5.80;;
64601;SDS011;68371;42.630;23.192;2023-06-22T02:17:26;8.00;;;5.63;;
64601;SDS011;68371;42.630;23.192;2023-06-22T02:19:59;15.70;;;5.97;;
64601;SDS011;68371;42.630;23.192;2023-06-22T02:22:33;10.48;;;5.88;;
64601;SDS011;68371;42.630;23.192;2023-06-22T02:25:00;8.27;;;5.60;;
64601;SDS011;68371;42.630;23.192;2023-06-22T02:27:28;9.52;;;5.50;;
64601;SDS011;68371;42.630;23.192;2023-06-22T02:29:55;8.00;;;5.90;;
64601;SDS011;68371;42.630;23.192;2023-06-22T02:32:22;7.50;;;5.63;;
64601;SDS011;68371;42.630;23.192;2023-06-22T02:34:48;7.88;;;5.50;;
64601;SDS011;68371;42.630;23.192;2023-06-22T02:37:17;7.82;;;5.45;;
64601;SDS011;68371;42.630;23.192;2023-06-22T02:39:44;10.27;;;5.70;;
64601;SDS011;68371;42.630;23.192;2023-06-22T02:42:10;11.75;;;6.88;;
64601;SDS011;68371;42.630;23.192;2023-06-22T02:44:37;7.38;;;5.50;;
64601;SDS011;68371;42.630;23.192;2023-06-22T02:47:04;7.30;;;5.38;;
64601;SDS011;68371;42.630;23.192;2023-06-22T02:49:31;11.50;;;5.40;;
64601;SDS011;68371;42.630;23.192;2023-06-22T02:51:58;7.07;;;5.75;;
64601;SDS011;68371;42.630;23.192;2023-06-22T02:54:26;8.77;;;5.70;;
64601;SDS011;68371;42.630;23.192;2023-06-22T02:56:53;8.40;;;5.75;;
64601;SDS011;68371;42.630;23.192;2023-06-22T02:59:20;7.95;;;5.45;;
64601;SDS011;68371;42.630;23.192;2023-06-22T03:01:48;10.98;;;6.57;;
64601;SDS011;68371;42.630;23.192;2023-06-22T03:04:15;14.57;;;5.80;;
64601;SDS011;68371;42.630;23.192;2023-06-22T03:06:42;9.65;;;6.18;;
64601;SDS011;68371;42.630;23.192;2023-06-22T03:09:09;10.65;;;5.78;;
64601;SDS011;68371;42.630;23.192;2023-06-22T03:11:37;9.88;;;5.93;;
64601;SDS011;68371;42.630;23.192;2023-06-22T03:14:04;8.73;;;5.88;;
64601;SDS011;68371;42.630;23.192;2023-06-22T03:16:31;8.98;;;6.30;;
64601;SDS011;68371;42.630;23.192;2023-06-22T03:18:58;8.13;;;5.57;;
64601;SDS011;68371;42.630;23.192;2023-06-22T03:21:26;11.93;;;6.20;;
64601;SDS011;68371;42.630;23.192;2023-06-22T03:23:54;9.93;;;6.50;;
64601;SDS011;68371;42.630;23.192;2023-06-22T03:26:21;9.80;;;6.90;;
64601;SDS011;68371;42.630;23.192;2023-06-22T03:28:49;8.82;;;6.95;;
64601;SDS011;68371;42.630;23.192;2023-06-22T03:31:16;11.05;;;6.60;;
64601;SDS011;68371;42.630;23.192;2023-06-22T03:33:46;9.10;;;6.43;;
64601;SDS011;68371;42.630;23.192;2023-06-22T03:36:13;8.82;;;6.43;;
64601;SDS011;68371;42.630;23.192;2023-06-22T03:38:41;15.30;;;6.63;;
64601;SDS011;68371;42.630;23.192;2023-06-22T03:41:08;8.88;;;6.88;;
64601;SDS011;68371;42.630;23.192;2023-06-22T03:43:34;11.43;;;7.10;;
64601;SDS011;68371;42.630;23.192;2023-06-22T03:46:03;8.98;;;7.20;;
64601;SDS011;68371;42.630;23.192;2023-06-22T03:48:29;14.63;;;7.53;;
64601;SDS011;68371;42.630;23.192;2023-06-22T03:50:56;9.63;;;6.90;;
64601;SDS011;68371;42.630;23.192;2023-06-22T03:53:23;18.35;;;6.45;;
64601;SDS011;68371;42.630;23.192;2023-06-22T03:55:50;10.95;;;6.88;;
64601;SDS011;68371;42.630;23.192;2023-06-22T03:58:17;15.95;;;6.32;;
64601;SDS011;68371;42.630;23.192;2023-06-22T04:00:45;10.70;;;7.15;;
64601;SDS011;68371;42.630;23.192;2023-06-22T04:03:13;13.32;;;6.82;;
64601;SDS011;68371;42.630;23.192;2023-06-22T04:05:41;9.75;;;7.07;;
64601;SDS011;68371;42.630;23.192;2023-06-22T04:08:08;10.48;;;6.75;;
64601;SDS011;68371;42.630;23.192;2023-06-22T04:10:34;15.32;;;7.57;;
64601;SDS011;68371;42.630;23.192;2023-06-22T04:13:01;11.73;;;7.38;;
64601;SDS011;68371;42.630;23.192;2023-06-22T04:15:28;12.75;;;6.88;;
64601;SDS011;68371;42.630;23.192;2023-06-22T04:17:55;12.98;;;8.85;;
64601;SDS011;68371;42.630;23.192;2023-06-22T04:20:23;12.55;;;7.15;;
64601;SDS011;68371;42.630;23.192;2023-06-22T04:22:52;10.07;;;7.47;;
64601;SDS011;68371;42.630;23.192;2023-06-22T04:25:19;12.25;;;7.82;;
64601;SDS011;68371;42.630;23.192;2023-06-22T04:27:46;14.32;;;8.10;;
64601;SDS011;68371;42.630;23.192;2023-06-22T04:30:13;14.82;;;8.15;;
64601;SDS011;68371;42.630;23.192;2023-06-22T04:32:41;12.50;;;7.13;;
64601;SDS011;68371;42.630;23.192;2023-06-22T04:35:09;10.77;;;7.90;;
64601;SDS011;68371;42.630;23.192;2023-06-22T04:37:37;11.23;;;7.82;;
64601;SDS011;68371;42.630;23.192;2023-06-22T04:40:05;12.00;;;8.45;;
64601;SDS011;68371;42.630;23.192;2023-06-22T04:42:34;12.82;;;8.50;;
64601;SDS011;68371;42.630;23.192;2023-06-22T04:45:02;11.45;;;8.25;;
64601;SDS011;68371;42.630;23.192;2023-06-22T04:47:29;13.20;;;8.57;;
64601;SDS011;68371;42.630;23.192;2023-06-22T04:49:56;14.25;;;8.50;;
64601;SDS011;68371;42.630;23.192;2023-06-22T04:52:23;12.68;;;9.02;;
64601;SDS011;68371;42.630;23.192;2023-06-22T04:54:51;12.57;;;7.85;;
64601;SDS011;68371;42.630;23.192;2023-06-22T04:57:20;12.10;;;7.95;;
64601;SDS011;68371;42.630;23.192;2023-06-22T04:59:57;11.00;;;8.20;;
64601;SDS011;68371;42.630;23.192;2023-06-22T05:02:32;15.80;;;8.63;;
64601;SDS011;68371;42.630;23.192;2023-06-22T05:04:58;12.55;;;8.27;;
64601;SDS011;68371;42.630;23.192;2023-06-22T05:07:25;16.45;;;8.80;;
64601;SDS011;68371;42.630;23.192;2023-06-22T05:09:53;13.98;;;8.27;;
64601;SDS011;68371;42.630;23.192;2023-06-22T05:12:20;11.82;;;8.07;;
64601;SDS011;68371;42.630;23.192;2023-06-22T05:14:46;11.68;;;8.20;;
64601;SDS011;68371;42.630;23.192;2023-06-22T05:17:13;10.88;;;7.97;;
64601;SDS011;68371;42.630;23.192;2023-06-22T05:19:44;10.60;;;7.60;;
64601;SDS011;68371;42.630;23.192;2023-06-22T05:22:13;9.57;;;7.32;;
64601;SDS011;68371;42.630;23.192;2023-06-22T05:24:40;10.93;;;7.15;;
64601;SDS011;68371;42.630;23.192;2023-06-22T05:27:09;9.35;;;7.10;;
64601;SDS011;68371;42.630;23.192;2023-06-22T05:29:37;9.40;;;6.55;;
64601;SDS011;68371;42.630;23.192;2023-06-22T05:32:04;8.93;;;6.47;;
64601;SDS011;68371;42.630;23.192;2023-06-22T05:34:31;11.73;;;7.07;;
64601;SDS011;68371;42.630;23.192;2023-06-22T05:36:58;12.68;;;6.93;;
64601;SDS011;68371;42.630;23.192;2023-06-22T05:39:25;11.38;;;7.32;;
64601;SDS011;68371;42.630;23.192;2023-06-22T05:41:52;13.25;;;7.20;;
64601;SDS011;68371;42.630;23.192;2023-06-22T05:44:20;11.85;;;7.50;;
64601;SDS011;68371;42.630;23.192;2023-06-22T05:46:46;9.30;;;6.82;;
64601;SDS011;68371;42.630;23.192;2023-06-22T05:49:13;12.90;;;7.25;;
64601;SDS011;68371;42.630;23.192;2023-06-22T05:51:41;11.68;;;7.80;;
64601;SDS011;68371;42.630;23.192;2023-06-22T05:54:08;13.35;;;7.68;;
64601;SDS011;68371;42.630;23.192;2023-06-22T05:56:35;13.20;;;7.05;;
64601;SDS011;68371;42.630;23.192;2023-06-22T05:59:02;12.18;;;7.03;;
64601;SDS011;68371;42.630;23.192;2023-06-22T06:01:30;11.75;;;6.30;;
64601;SDS011;68371;42.630;23.192;2023-06-22T06:04:00;9.98;;;6.55;;
64601;SDS011;68371;42.630;23.192;2023-06-22T06:06:29;11.90;;;7.50;;
64601;SDS011;68371;42.630;23.192;2023-06-22T06:08:55;10.07;;;6.75;;
64601;SDS011;68371;42.630;23.192;2023-06-22T06:11:22;11.80;;;6.97;;
64601;SDS011;68371;42.630;23.192;2023-06-22T06:13:49;11.80;;;6.80;;
64601;SDS011;68371;42.630;23.192;2023-06-22T06:16:16;9.63;;;7.82;;
64601;SDS011;68371;42.630;23.192;2023-06-22T06:18:45;9.93;;;7.30;;
64601;SDS011;68371;42.630;23.192;2023-06-22T06:21:11;10.40;;;6.70;;
64601;SDS011;68371;42.630;23.192;2023-06-22T06:23:38;11.85;;;7.00;;
64601;SDS011;68371;42.630;23.192;2023-06-22T06:26:05;12.05;;;7.00;;
64601;SDS011;68371;42.630;23.192;2023-06-22T06:28:32;11.18;;;6.68;;
64601;SDS011;68371;42.630;23.192;2023-06-22T06:30:58;10.85;;;6.63;;
64601;SDS011;68371;42.630;23.192;2023-06-22T06:33:25;9.18;;;6.70;;
64601;SDS011;68371;42.630;23.192;2023-06-22T06:35:53;10.40;;;6.65;;
64601;SDS011;68371;42.630;23.192;2023-06-22T06:38:21;8.82;;;6.68;;
64601;SDS011;68371;42.630;23.192;2023-06-22T06:40:47;9.07;;;7.50;;
64601;SDS011;68371;42.630;23.192;2023-06-22T06:43:14;9.85;;;6.80;;
64601;SDS011;68371;42.630;23.192;2023-06-22T06:45:41;11.32;;;6.55;;
64601;SDS011;68371;42.630;23.192;2023-06-22T06:48:08;8.68;;;7.00;;
64601;SDS011;68371;42.630;23.192;2023-06-22T06:50:35;9.98;;;6.22;;
64601;SDS011;68371;42.630;23.192;2023-06-22T06:53:03;10.45;;;7.10;;
64601;SDS011;68371;42.630;23.192;2023-06-22T06:55:30;12.27;;;7.00;;
64601;SDS011;68371;42.630;23.192;2023-06-22T06:57:58;8.82;;;6.82;;
64601;SDS011;68371;42.630;23.192;2023-06-22T07:00:25;12.80;;;7.00;;
64601;SDS011;68371;42.630;23.192;2023-06-22T07:02:52;11.15;;;7.00;;
64601;SDS011;68371;42.630;23.192;2023-06-22T07:05:19;14.32;;;6.85;;
64601;SDS011;68371;42.630;23.192;2023-06-22T07:07:47;8.65;;;6.70;;
64601;SDS011;68371;42.630;23.192;2023-06-22T07:10:15;9.48;;;6.93;;
64601;SDS011;68371;42.630;23.192;2023-06-22T07:12:43;8.13;;;7.05;;
64601;SDS011;68371;42.630;23.192;2023-06-22T07:15:10;8.23;;;6.88;;
64601;SDS011;68371;42.630;23.192;2023-06-22T07:17:37;10.00;;;6.60;;
64601;SDS011;68371;42.630;23.192;2023-06-22T07:20:06;9.93;;;6.90;;
64601;SDS011;68371;42.630;23.192;2023-06-22T07:22:35;11.45;;;6.60;;
64601;SDS011;68371;42.630;23.192;2023-06-22T07:25:02;9.25;;;6.78;;
64601;SDS011;68371;42.630;23.192;2023-06-22T07:27:35;9.15;;;6.90;;
64601;SDS011;68371;42.630;23.192;2023-06-22T07:30:05;9.57;;;6.55;;
64601;SDS011;68371;42.630;23.192;2023-06-22T07:32:32;9.77;;;6.72;;
64601;SDS011;68371;42.630;23.192;2023-06-22T07:34:59;11.60;;;6.70;;
64601;SDS011;68371;42.630;23.192;2023-06-22T07:37:27;9.70;;;6.78;;
64601;SDS011;68371;42.630;23.192;2023-06-22T07:39:54;10.35;;;7.40;;
64601;SDS011;68371;42.630;23.192;2023-06-22T07:42:23;11.57;;;6.28;;
64601;SDS011;68371;42.630;23.192;2023-06-22T07:44:52;8.52;;;6.70;;
64601;SDS011;68371;42.630;23.192;2023-06-22T07:47:19;9.63;;;7.78;;
64601;SDS011;68371;42.630;23.192;2023-06-22T07:49:50;12.60;;;8.52;;
64601;SDS011;68371;42.630;23.192;2023-06-22T07:52:16;8.13;;;7.10;;
64601;SDS011;68371;42.630;23.192;2023-06-22T07:54:43;19.00;;;12.95;;
64601;SDS011;68371;42.630;23.192;2023-06-22T07:57:10;12.55;;;7.93;;
64601;SDS011;68371;42.630;23.192;2023-06-22T07:59:37;7.93;;;7.13;;
64601;SDS011;68371;42.630;23.192;2023-06-22T08:02:05;9.50;;;7.40;;
64601;SDS011;68371;42.630;23.192;2023-06-22T08:04:33;10.53;;;8.10;;
64601;SDS011;68371;42.630;23.192;2023-06-22T08:07:00;11.93;;;7.25;;
64601;SDS011;68371;42.630;23.192;2023-06-22T08:09:29;11.15;;;7.50;;
64601;SDS011;68371;42.630;23.192;2023-06-22T08:11:57;9.65;;;7.50;;
64601;SDS011;68371;42.630;23.192;2023-06-22T08:14:24;9.40;;;8.18;;
64601;SDS011;68371;42.630;23.192;2023-06-22T08:16:52;11.10;;;7.80;;
64601;SDS011;68371;42.630;23.192;2023-06-22T08:19:22;8.13;;;7.32;;
64601;SDS011;68371;42.630;23.192;2023-06-22T08:21:49;9.38;;;7.65;;
64601;SDS011;68371;42.630;23.192;2023-06-22T08:24:16;10.07;;;7.65;;
64601;SDS011;68371;42.630;23.192;2023-06-22T08:26:43;9.50;;;8.50;;
64601;SDS011;68371;42.630;23.192;2023-06-22T08:29:10;11.40;;;8.15;;
64601;SDS011;68371;42.630;23.192;2023-06-22T08:31:36;9.60;;;8.30;;
64601;SDS011;68371;42.630;23.192;2023-06-22T08:34:03;9.55;;;7.90;;
64601;SDS011;68371;42.630;23.192;2023-06-22T08:36:31;9.27;;;8.30;;
64601;SDS011;68371;42.630;23.192;2023-06-22T08:39:00;9.38;;;7.80;;
64601;SDS011;68371;42.630;23.192;2023-06-22T08:41:27;12.18;;;7.20;;
64601;SDS011;68371;42.630;23.192;2023-06-22T08:43:54;9.50;;;7.40;;
64601;SDS011;68371;42.630;23.192;2023-06-22T08:46:21;8.80;;;7.60;;
64601;SDS011;68371;42.630;23.192;2023-06-22T08:48:55;9.88;;;6.65;;
64601;SDS011;68371;42.630;23.192;2023-06-22T08:51:23;7.25;;;6.47;;
64601;SDS011;68371;42.630;23.192;2023-06-22T08:53:51;8.65;;;6.25;;
64601;SDS011;68371;42.630;23.192;2023-06-22T08:56:18;8.98;;;7.03;;
64601;SDS011;68371;42.630;23.192;2023-06-22T08:58:44;7.20;;;6.18;;
64601;SDS011;68371;42.630;23.192;2023-06-22T09:01:11;7.68;;;6.65;;
64601;SDS011;68371;42.630;23.192;2023-06-22T09:03:40;8.93;;;6.60;;
64601;SDS011;68371;42.630;23.192;2023-06-22T09:06:09;8.98;;;6.78;;
64601;SDS011;68371;42.630;23.192;2023-06-22T09:08:37;8.35;;;6.57;;
64601;SDS011;68371;42.630;23.192;2023-06-22T09:11:05;8.02;;;6.78;;
64601;SDS011;68371;42.630;23.192;2023-06-22T09:13:32;9.75;;;6.68;;
64601;SDS011;68371;42.630;23.192;2023-06-22T09:15:59;12.10;;;7.25;;
64601;SDS011;68371;42.630;23.192;2023-06-22T09:18:26;7.80;;;7.00;;
64601;SDS011;68371;42.630;23.192;2023-06-22T09:20:54;9.85;;;7.00;;
64601;SDS011;68371;42.630;23.192;2023-06-22T09:23:21;8.30;;;6.75;;
64601;SDS011;68371;42.630;23.192;2023-06-22T09:25:48;7.95;;;7.13;;
64601;SDS011;68371;42.630;23.192;2023-06-22T09:28:16;10.30;;;6.40;;
64601;SDS011;68371;42.630;23.192;2023-06-22T09:30:43;7.85;;;7.05;;
64601;SDS011;68371;42.630;23.192;2023-06-22T09:33:10;11.00;;;7.25;;
64601;SDS011;68371;42.630;23.192;2023-06-22T09:35:36;10.90;;;7.18;;
64601;SDS011;68371;42.630;23.192;2023-06-22T09:38:03;10.85;;;7.43;;
64601;SDS011;68371;42.630;23.192;2023-06-22T09:40:30;7.30;;;6.57;;
64601;SDS011;68371;42.630;23.192;2023-06-22T09:43:00;7.63;;;6.80;;
64601;SDS011;68371;42.630;23.192;2023-06-22T09:45:28;10.18;;;6.22;;
64601;SDS011;68371;42.630;23.192;2023-06-22T09:47:55;8.60;;;6.57;;
64601;SDS011;68371;42.630;23.192;2023-06-22T09:50:22;7.70;;;6.70;;
64601;SDS011;68371;42.630;23.192;2023-06-22T09:52:49;7.70;;;6.00;;
64601;SDS011;68371;42.630;23.192;2023-06-22T09:55:19;9.60;;;6.38;;
64601;SDS011;68371;42.630;23.192;2023-06-22T09:57:46;7.20;;;5.80;;
64601;SDS011;68371;42.630;23.192;2023-06-22T10:00:13;6.65;;;6.03;;
64601;SDS011;68371;42.630;23.192;2023-06-22T10:02:43;8.30;;;6.68;;
64601;SDS011;68371;42.630;23.192;2023-06-22T10:05:10;8.50;;;6.03;;
64601;SDS011;68371;42.630;23.192;2023-06-22T10:07:36;9.45;;;6.82;;
64601;SDS011;68371;42.630;23.192;2023-06-22T10:10:07;7.47;;;6.53;;
64601;SDS011;68371;42.630;23.192;2023-06-22T10:12:34;7.38;;;6.32;;
64601;SDS011;68371;42.630;23.192;2023-06-22T10:15:01;8.70;;;6.40;;
64601;SDS011;68371;42.630;23.192;2023-06-22T10:17:28;7.18;;;6.10;;
64601;SDS011;68371;42.630;23.192;2023-06-22T10:19:56;7.88;;;5.55;;
64601;SDS011;68371;42.630;23.192;2023-06-22T10:22:22;7.70;;;6.43;;
64601;SDS011;68371;42.630;23.192;2023-06-22T10:24:49;13.35;;;6.80;;
64601;SDS011;68371;42.630;23.192;2023-06-22T10:27:16;6.78;;;5.88;;
64601;SDS011;68371;42.630;23.192;2023-06-22T10:29:42;7.20;;;5.70;;
64601;SDS011;68371;42.630;23.192;2023-06-22T10:32:10;8.38;;;6.35;;
64601;SDS011;68371;42.630;23.192;2023-06-22T10:34:36;6.60;;;5.90;;
64601;SDS011;68371;42.630;23.192;2023-06-22T10:37:05;7.65;;;5.78;;
64601;SDS011;68371;42.630;23.192;2023-06-22T10:39:32;9.60;;;6.28;;
64601;SDS011;68371;42.630;23.192;2023-06-22T10:41:58;8.93;;;6.68;;
64601;SDS011;68371;42.630;23.192;2023-06-22T10:44:25;6.60;;;5.85;;
64601;SDS011;68371;42.630;23.192;2023-06-22T10:46:52;13.57;;;6.47;;
64601;SDS011;68371;42.630;23.192;2023-06-22T10:49:19;10.63;;;6.50;;
64601;SDS011;68371;42.630;23.192;2023-06-22T10:51:45;9.35;;;6.75;;
64601;SDS011;68371;42.630;23.192;2023-06-22T10:54:13;8.70;;;6.07;;
64601;SDS011;68371;42.630;23.192;2023-06-22T10:56:43;7.60;;;5.88;;
64601;SDS011;68371;42.630;23.192;2023-06-22T10:59:10;6.70;;;5.60;;
64601;SDS011;68371;42.630;23.192;2023-06-22T11:01:36;9.18;;;6.07;;
64601;SDS011;68371;42.630;23.192;2023-06-22T11:04:06;7.57;;;5.78;;
64601;SDS011;68371;42.630;23.192;2023-06-22T11:06:33;8.25;;;5.88;;
64601;SDS011;68371;42.630;23.192;2023-06-22T11:09:00;11.43;;;6.18;;
64601;SDS011;68371;42.630;23.192;2023-06-22T11:11:30;7.00;;;5.97;;
64601;SDS011;68371;42.630;23.192;2023-06-22T11:13:57;6.03;;;5.40;;
64601;SDS011;68371;42.630;23.192;2023-06-22T11:16:23;6.95;;;5.93;;
64601;SDS011;68371;42.630;23.192;2023-06-22T11:18:50;7.95;;;5.93;;
64601;SDS011;68371;42.630;23.192;2023-06-22T11:21:17;8.63;;;6.00;;
64601;SDS011;68371;42.630;23.192;2023-06-22T11:23:44;8.25;;;5.82;;
64601;SDS011;68371;42.630;23.192;2023-06-22T11:26:11;7.47;;;5.57;;
64601;SDS011;68371;42.630;23.192;2023-06-22T11:28:39;7.32;;;6.30;;
64601;SDS011;68371;42.630;23.192;2023-06-22T11:31:06;6.90;;;6.07;;
64601;SDS011;68371;42.630;23.192;2023-06-22T11:33:33;6.53;;;5.90;;
64601;SDS011;68371;42.630;23.192;2023-06-22T11:36:00;8.10;;;6.65;;
64601;SDS011;68371;42.630;23.192;2023-06-22T11:38:27;8.50;;;6.07;;
64601;SDS011;68371;42.630;23.192;2023-06-22T11:40:54;8.38;;;6.03;;
64601;SDS011;68371;42.630;23.192;2023-06-22T11:43:21;6.50;;;5.90;;
64601;SDS011;68371;42.630;23.192;2023-06-22T11:45:49;7.10;;;6.25;;
64601;SDS011;68371;42.630;23.192;2023-06-22T11:48:16;8.55;;;6.18;;
64601;SDS011;68371;42.630;23.192;2023-06-22T11:50:42;9.13;;;6.20;;
64601;SDS011;68371;42.630;23.192;2023-06-22T11:53:09;7.47;;;5.97;;
64601;SDS011;68371;42.630;23.192;2023-06-22T11:55:36;7.15;;;5.95;;
64601;SDS011;68371;42.630;23.192;2023-06-22T11:58:06;8.10;;;5.75;;
64601;SDS011;68371;42.630;23.192;2023-06-22T12:03:01;7.35;;;5.55;;
64601;SDS011;68371;42.630;23.192;2023-06-22T12:05:28;11.35;;;5.60;;
64601;SDS011;68371;42.630;23.192;2023-06-22T12:07:55;9.63;;;5.68;;
64601;SDS011;68371;42.630;23.192;2023-06-22T12:10:22;6.78;;;6.07;;
64601;SDS011;68371;42.630;23.192;2023-06-22T12:12:49;7.85;;;7.00;;
64601;SDS011;68371;42.630;23.192;2023-06-22T12:15:16;8.57;;;6.40;;
64601;SDS011;68371;42.630;23.192;2023-06-22T12:17:44;9.02;;;6.22;;
64601;SDS011;68371;42.630;23.192;2023-06-22T12:20:12;7.85;;;6.05;;
64601;SDS011;68371;42.630;23.192;2023-06-22T12:22:38;7.13;;;6.35;;
64601;SDS011;68371;42.630;23.192;2023-06-22T12:25:06;7.30;;;6.35;;
64601;SDS011;68371;42.630;23.192;2023-06-22T12:27:33;7.88;;;6.32;;
64601;SDS011;68371;42.630;23.192;2023-06-22T12:30:01;10.43;;;6.80;;
64601;SDS011;68371;42.630;23.192;2023-06-22T12:32:28;8.63;;;6.93;;
64601;SDS011;68371;42.630;23.192;2023-06-22T12:34:55;8.82;;;6.97;;
64601;SDS011;68371;42.630;23.192;2023-06-22T12:37:23;9.20;;;7.10;;
64601;SDS011;68371;42.630;23.192;2023-06-22T12:39:50;11.55;;;7.65;;
64601;SDS011;68371;42.630;23.192;2023-06-22T12:42:17;10.85;;;6.85;;
64601;SDS011;68371;42.630;23.192;2023-06-22T12:44:43;7.78;;;6.05;;
64601;SDS011;68371;42.630;23.192;2023-06-22T12:47:10;9.52;;;6.50;;
64601;SDS011;68371;42.630;23.192;2023-06-22T12:49:38;9.13;;;6.15;;
64601;SDS011;68371;42.630;23.192;2023-06-22T12:52:08;11.05;;;6.68;;
64601;SDS011;68371;42.630;23.192;2023-06-22T12:54:37;12.00;;;6.28;;
64601;SDS011;68371;42.630;23.192;2023-06-22T12:57:04;9.90;;;6.95;;
64601;SDS011;68371;42.630;23.192;2023-06-22T12:59:32;9.65;;;6.78;;
64601;SDS011;68371;42.630;23.192;2023-06-22T13:01:59;18.00;;;7.32;;
64601;SDS011;68371;42.630;23.192;2023-06-22T13:04:26;12.10;;;6.30;;
64601;SDS011;68371;42.630;23.192;2023-06-22T13:06:53;10.07;;;6.75;;
64601;SDS011;68371;42.630;23.192;2023-06-22T13:09:19;12.25;;;6.72;;
64601;SDS011;68371;42.630;23.192;2023-06-22T13:11:47;10.30;;;7.30;;
64601;SDS011;68371;42.630;23.192;2023-06-22T13:14:14;9.88;;;6.90;;
64601;SDS011;68371;42.630;23.192;2023-06-22T13:16:42;10.52;;;7.25;;
64601;SDS011;68371;42.630;23.192;2023-06-22T13:19:08;9.02;;;7.15;;
64601;SDS011;68371;42.630;23.192;2023-06-22T13:34:03;8.95;;;5.55;;
64601;SDS011;68371;42.630;23.192;2023-06-22T13:36:30;10.45;;;6.28;;
64601;SDS011;68371;42.630;23.192;2023-06-22T13:38:57;11.30;;;5.72;;
64601;SDS011;68371;42.630;23.192;2023-06-22T13:41:24;14.68;;;6.28;;
64601;SDS011;68371;42.630;23.192;2023-06-22T13:43:51;9.27;;;5.78;;
64601;SDS011;68371;42.630;23.192;2023-06-22T13:46:17;12.00;;;5.70;;
64601;SDS011;68371;42.630;23.192;2023-06-22T13:48:44;7.95;;;5.60;;
64601;SDS011;68371;42.630;23.192;2023-06-22T13:51:12;7.05;;;5.70;;
64601;SDS011;68371;42.630;23.192;2023-06-22T13:53:39;9.88;;;5.53;;
64601;SDS011;68371;42.630;23.192;2023-06-22T13:56:06;12.23;;;6.20;;
64601;SDS011;68371;42.630;23.192;2023-06-22T13:58:32;10.63;;;6.07;;
64601;SDS011;68371;42.630;23.192;2023-06-22T14:00:59;9.38;;;5.65;;
64601;SDS011;68371;42.630;23.192;2023-06-22T14:03:26;11.23;;;5.85;;
64601;SDS011;68371;42.630;23.192;2023-06-22T14:05:52;9.18;;;5.85;;
64601;SDS011;68371;42.630;23.192;2023-06-22T14:08:23;10.30;;;6.10;;
64601;SDS011;68371;42.630;23.192;2023-06-22T14:10:50;10.80;;;6.07;;
64601;SDS011;68371;42.630;23.192;2023-06-22T14:13:18;10.05;;;6.13;;
64601;SDS011;68371;42.630;23.192;2023-06-22T14:15:45;12.40;;;6.15;;
64601;SDS011;68371;42.630;23.192;2023-06-22T14:18:13;9.80;;;5.85;;
64601;SDS011;68371;42.630;23.192;2023-06-22T14:20:40;7.18;;;6.20;;
64601;SDS011;68371;42.630;23.192;2023-06-22T14:23:07;10.30;;;6.50;;
64601;SDS011;68371;42.630;23.192;2023-06-22T14:25:35;11.02;;;6.80;;
64601;SDS011;68371;42.630;23.192;2023-06-22T14:28:05;10.93;;;6.63;;
64601;SDS011;68371;42.630;23.192;2023-06-22T14:30:31;9.30;;;6.57;;
64601;SDS011;68371;42.630;23.192;2023-06-22T14:32:58;8.45;;;6.30;;
64601;SDS011;68371;42.630;23.192;2023-06-22T14:35:25;13.02;;;6.53;;
64601;SDS011;68371;42.630;23.192;2023-06-22T14:37:52;13.27;;;7.18;;
64601;SDS011;68371;42.630;23.192;2023-06-22T14:40:18;14.45;;;6.80;;
64601;SDS011;68371;42.630;23.192;2023-06-22T14:42:46;10.20;;;6.95;;
64601;SDS011;68371;42.630;23.192;2023-06-22T14:45:13;12.32;;;7.10;;